Terminal Aerodrome Forecast
Issued by NWS Sioux Falls, SD

Home | Current Version | Previous Version | Graphics & Text | Print | Product List | Glossary On
Versions: 1 2 3 4 5 6 7 8 9 10 11 12 13 14
000
FTUS43 KFSD 280036 RRA
TAFFSD
TAF
KFSD 280036Z 2801/2824 17017G26KT P6SM BKN200
     FM280400 16017G26KT P6SM VCTS BKN050CB
      TEMPO 2805/2808 4SM -TSRA OVC040CB
     FM280900 17012KT P6SM OVC080
     FM281200 20012KT P6SM BKN080
     FM281400 25012KT P6SM BKN100
     FM281600 27012KT P6SM SCT120
     FM282000 30013KT P6SM FEW200=

USA.gov is the U.S. government's official web portal to all federal, state and local government web resources and services.